Time;durP1;ratioP1;P1;durP2;ratioP2;P2;SDS_P1;SDS_P2;PMS_P1;PMS_P2;Temp;Humidity;BMP_temperature;BMP_pressure;BME280_temperature;BME280_humidity;BME280_pressure;Samples;Min_cycle;Max_cycle;Signal;HPM_P1;HPM_P2
2023/10/31 00:03:22;;;;;;;7.80;7.60;;;13.00;99.90;;;;;;10504065;28;20217;-77
2023/10/31 00:08:45;;;;;;;8.50;8.10;;;13.00;99.90;;;;;;10529371;28;20211;-77
2023/10/31 00:14:08;;;;;;;7.83;7.53;;;13.00;99.90;;;;;;10489613;28;20598;-76
2023/10/31 00:19:32;;;;;;;7.60;7.33;;;13.00;99.90;;;;;;10515888;28;20217;-76
2023/10/31 00:24:54;;;;;;;7.53;7.30;;;12.90;99.90;;;;;;10494524;28;20221;-77
2023/10/31 00:30:16;;;;;;;8.07;7.77;;;12.90;99.90;;;;;;10497438;28;20195;-77
2023/10/31 00:35:40;;;;;;;7.30;7.00;;;13.00;99.90;;;;;;10488052;28;20269;-76
2023/10/31 00:41:02;;;;;;;8.43;8.03;;;13.00;99.90;;;;;;10501727;28;20224;-77
2023/10/31 00:46:24;;;;;;;6.17;5.97;;;13.10;99.90;;;;;;10512133;28;20228;-76
2023/10/31 00:51:48;;;;;;;5.30;5.10;;;13.10;99.90;;;;;;10508155;28;20195;-77
2023/10/31 00:57:10;;;;;;;5.90;5.40;;;13.10;99.90;;;;;;10517634;28;20221;-76
2023/10/31 01:02:32;;;;;;;7.10;6.80;;;13.10;99.90;;;;;;10488536;28;20342;-77
2023/10/31 01:07:56;;;;;;;5.83;5.63;;;13.10;99.90;;;;;;10520073;28;20216;-76
2023/10/31 01:13:18;;;;;;;5.83;5.63;;;13.10;99.90;;;;;;10509002;28;20213;-77
2023/10/31 01:18:40;;;;;;;5.80;5.60;;;13.10;99.90;;;;;;10503442;28;20248;-77
2023/10/31 01:24:05;;;;;;;5.90;5.60;;;13.00;99.90;;;;;;10511792;28;20228;-77
2023/10/31 01:29:27;;;;;;;7.27;6.77;;;13.00;99.90;;;;;;10502263;28;20209;-77
2023/10/31 01:34:49;;;;;;;6.60;6.20;;;12.90;99.90;;;;;;10504928;28;20223;-76
2023/10/31 01:40:14;;;;;;;6.13;5.93;;;12.90;99.90;;;;;;10534880;28;20262;-77
2023/10/31 01:45:37;;;;;;;6.00;5.80;;;12.90;99.90;;;;;;10481991;28;20233;-77
2023/10/31 01:51:00;;;;;;;6.50;6.00;;;12.90;99.90;;;;;;10513658;28;20202;-77
2023/10/31 01:56:25;;;;;;;6.20;5.97;;;12.90;99.90;;;;;;10484507;28;20705;-77
2023/10/31 02:01:48;;;;;;;5.80;5.60;;;12.90;99.90;;;;;;10515387;28;20224;-77
2023/10/31 02:07:10;;;;;;;5.40;5.27;;;12.90;99.90;;;;;;10526051;28;20240;-77
2023/10/31 02:12:34;;;;;;;6.20;6.00;;;12.90;99.90;;;;;;10507934;28;20662;-77
2023/10/31 02:17:56;;;;;;;6.00;5.60;;;12.90;99.90;;;;;;10519176;28;20604;-77
2023/10/31 02:23:20;;;;;;;6.40;6.13;;;12.90;99.90;;;;;;10510613;28;20238;-77
2023/10/31 02:28:42;;;;;;;5.87;5.67;;;12.80;99.90;;;;;;10512811;28;20197;-77
2023/10/31 02:34:05;;;;;;;6.00;5.80;;;12.80;99.90;;;;;;10503026;28;20224;-77
2023/10/31 02:39:28;;;;;;;5.60;5.40;;;12.70;99.90;;;;;;10517781;28;20302;-76
2023/10/31 02:44:51;;;;;;;9.60;6.27;;;12.70;99.90;;;;;;10494999;28;20307;-77
2023/10/31 02:50:13;;;;;;;6.27;5.87;;;12.60;99.90;;;;;;10506139;28;20208;-77
2023/10/31 02:55:36;;;;;;;6.03;5.73;;;12.60;99.90;;;;;;10483838;28;20606;-76
2023/10/31 03:00:58;;;;;;;5.50;5.30;;;12.50;99.90;;;;;;10525942;28;20259;-77
2023/10/31 03:06:21;;;;;;;5.50;5.17;;;12.50;99.90;;;;;;10531344;28;20224;-77
2023/10/31 03:11:44;;;;;;;5.10;5.00;;;12.40;99.90;;;;;;10476067;28;20196;-76
2023/10/31 03:17:06;;;;;;;5.37;5.17;;;12.40;99.90;;;;;;10531740;28;20258;-77
2023/10/31 03:22:28;;;;;;;5.40;5.20;;;12.50;99.90;;;;;;10509773;28;20228;-76
2023/10/31 03:27:52;;;;;;;5.80;5.60;;;12.50;99.90;;;;;;10480446;28;20224;-77
2023/10/31 03:33:15;;;;;;;5.37;5.17;;;12.50;99.90;;;;;;10505440;28;20242;-76
2023/10/31 03:38:37;;;;;;;5.20;5.00;;;12.50;99.90;;;;;;10522043;28;20201;-76
2023/10/31 03:44:01;;;;;;;5.00;4.80;;;12.40;99.90;;;;;;10501289;28;20227;-77
2023/10/31 03:49:23;;;;;;;5.67;5.37;;;12.40;99.90;;;;;;10515915;28;20199;-77
2023/10/31 03:54:45;;;;;;;5.30;5.00;;;12.40;99.90;;;;;;10501794;28;20228;-77
2023/10/31 04:00:11;;;;;;;5.60;5.30;;;12.50;99.90;;;;;;10512658;28;20721;-77
2023/10/31 04:05:37;;;;;;;5.43;5.13;;;12.50;99.90;;;;;;10516655;28;20216;-77
2023/10/31 04:10:59;;;;;;;3.77;3.60;;;12.40;99.90;;;;;;10504386;28;20204;-77
2023/10/31 04:16:23;;;;;;;5.77;5.47;;;12.40;99.90;;;;;;10517784;28;20592;-77
2023/10/31 04:21:45;;;;;;;5.30;5.10;;;12.40;99.90;;;;;;10535868;28;20743;-77
2023/10/31 04:27:08;;;;;;;5.37;5.17;;;12.40;99.90;;;;;;10504536;28;20710;-77
2023/10/31 04:32:31;;;;;;;4.17;4.07;;;12.50;99.90;;;;;;10520356;28;20197;-77
2023/10/31 04:37:53;;;;;;;4.90;4.70;;;12.50;99.90;;;;;;10534886;28;20223;-77
2023/10/31 04:43:15;;;;;;;5.47;4.97;;;12.50;99.90;;;;;;10495605;28;20254;-77
2023/10/31 04:48:39;;;;;;;5.17;4.97;;;12.50;99.90;;;;;;10540372;23;20297;-80
2023/10/31 04:54:01;;;;;;;3.70;3.53;;;12.50;99.90;;;;;;10527087;28;20189;-81
2023/10/31 04:59:23;;;;;;;4.50;4.30;;;12.50;99.90;;;;;;10446170;28;20252;-80
2023/10/31 05:04:50;;;;;;;4.20;4.00;;;12.40;99.90;;;;;;10461907;28;20228;-79
2023/10/31 05:10:12;;;;;;;4.03;3.93;;;12.40;99.90;;;;;;10470229;28;20193;-80
2023/10/31 05:15:35;;;;;;;3.97;3.70;;;12.40;99.90;;;;;;10471441;28;20232;-80
2023/10/31 05:20:58;;;;;;;3.80;3.70;;;12.40;99.90;;;;;;10485994;28;20685;-80
2023/10/31 05:26:21;;;;;;;2.80;2.67;;;12.40;99.90;;;;;;10477691;28;20237;-80
2023/10/31 05:31:43;;;;;;;3.77;3.57;;;12.40;99.90;;;;;;10471220;28;20209;-81
2023/10/31 05:37:07;;;;;;;3.83;3.67;;;12.30;99.90;;;;;;10478204;28;20227;-80
2023/10/31 05:42:29;;;;;;;5.63;3.80;;;12.30;99.90;;;;;;10459960;28;20229;-80
2023/10/31 05:47:51;;;;;;;3.43;3.33;;;12.30;99.90;;;;;;10477256;28;20233;-80
2023/10/31 05:53:15;;;;;;;3.20;3.10;;;12.20;99.90;;;;;;10481759;28;20267;-80
2023/10/31 05:58:38;;;;;;;1.80;1.70;;;12.20;99.90;;;;;;10490467;28;20225;-80
2023/10/31 06:04:00;;;;;;;2.50;2.40;;;12.20;99.90;;;;;;10462876;28;20222;-80
2023/10/31 06:09:24;;;;;;;2.67;2.53;;;12.20;99.90;;;;;;10490385;28;20212;-80
2023/10/31 06:14:46;;;;;;;3.40;3.20;;;12.10;99.90;;;;;;10476438;28;20217;-79
2023/10/31 06:20:09;;;;;;;2.23;2.13;;;12.20;99.90;;;;;;10467046;28;20304;-79
2023/10/31 06:25:32;;;;;;;2.40;2.30;;;12.20;99.90;;;;;;10461679;28;20767;-80
2023/10/31 06:30:56;;;;;;;2.50;2.40;;;12.20;99.90;;;;;;10483539;28;20197;-80
2023/10/31 06:36:18;;;;;;;2.47;2.37;;;12.20;99.90;;;;;;10456810;28;20228;-80
2023/10/31 06:41:42;;;;;;;2.30;2.20;;;12.30;99.90;;;;;;10461954;28;20227;-80
2023/10/31 06:47:04;;;;;;;2.03;1.93;;;12.30;99.90;;;;;;10453675;28;20229;-80
2023/10/31 06:52:26;;;;;;;2.97;2.87;;;12.30;99.90;;;;;;10472193;28;20198;-80
2023/10/31 06:57:50;;;;;;;2.90;2.70;;;12.30;99.90;;;;;;10472028;28;20217;-79
2023/10/31 07:03:15;;;;;;;2.00;1.90;;;12.40;99.90;;;;;;10486040;28;20252;-80
2023/10/31 07:08:37;;;;;;;2.00;1.90;;;12.40;99.90;;;;;;10469510;28;20224;-80
2023/10/31 07:14:01;;;;;;;2.10;2.00;;;12.40;99.90;;;;;;10466122;28;20193;-80
2023/10/31 07:19:24;;;;;;;2.40;1.93;;;12.50;99.90;;;;;;10463414;28;20196;-80
2023/10/31 07:24:46;;;;;;;1.73;1.43;;;12.50;99.90;;;;;;10466329;28;20224;-80
2023/10/31 07:30:11;;;;;;;1.63;1.53;;;12.60;99.90;;;;;;10484487;28;20204;-80
2023/10/31 07:35:33;;;;;;;1.80;1.70;;;12.60;99.90;;;;;;10492545;28;20228;-80
2023/10/31 07:40:55;;;;;;;1.40;1.40;;;12.60;99.90;;;;;;10434618;28;20229;-80
2023/10/31 07:46:19;;;;;;;2.20;2.10;;;12.60;99.90;;;;;;10490512;28;20610;-80
2023/10/31 07:51:42;;;;;;;2.00;1.90;;;12.70;99.90;;;;;;10480362;28;20697;-80
2023/10/31 07:57:05;;;;;;;2.00;1.90;;;12.70;99.90;;;;;;10459690;28;20222;-80
2023/10/31 08:02:28;;;;;;;1.70;1.60;;;12.80;99.90;;;;;;10448580;28;20217;-81
2023/10/31 08:07:50;;;;;;;1.67;1.50;;;12.90;99.90;;;;;;10473965;28;20252;-80
2023/10/31 08:13:13;;;;;;;1.93;1.57;;;12.90;99.90;;;;;;10454652;28;20204;-80
2023/10/31 08:18:36;;;;;;;1.73;1.63;;;13.00;99.90;;;;;;10467757;28;20693;-80
2023/10/31 08:23:58;;;;;;;1.83;1.73;;;13.10;99.90;;;;;;10456295;28;20221;-80
2023/10/31 08:29:20;;;;;;;1.77;1.67;;;13.20;99.90;;;;;;10463996;28;20210;-81
2023/10/31 08:34:44;;;;;;;1.80;1.70;;;13.20;99.90;;;;;;10460564;28;20222;-81
2023/10/31 08:40:08;;;;;;;1.73;1.63;;;13.30;99.90;;;;;;10468373;28;20281;-80
2023/10/31 08:45:30;;;;;;;1.83;1.57;;;13.40;99.90;;;;;;10459196;28;20610;-80
2023/10/31 08:50:53;;;;;;;1.90;1.80;;;13.50;99.90;;;;;;10454258;28;20217;-81
2023/10/31 08:56:16;;;;;;;4.53;1.77;;;13.50;99.90;;;;;;10477528;28;20488;-80
2023/10/31 09:01:38;;;;;;;2.33;1.90;;;13.60;99.90;;;;;;10449956;28;20225;-80
2023/10/31 09:07:01;;;;;;;2.40;1.40;;;13.70;99.90;;;;;;10464847;28;20231;-80
2023/10/31 09:12:24;;;;;;;2.00;1.43;;;13.80;99.90;;;;;;10468732;28;20197;-80
2023/10/31 09:17:46;;;;;;;2.23;2.00;;;13.70;99.90;;;;;;10466282;28;20216;-80
2023/10/31 09:23:09;;;;;;;1.73;1.63;;;13.80;99.90;;;;;;10479383;28;20232;-80
2023/10/31 09:28:32;;;;;;;2.10;1.70;;;14.00;99.90;;;;;;10482949;28;20232;-80
2023/10/31 09:33:54;;;;;;;1.53;1.43;;;14.20;99.90;;;;;;10445418;28;20816;-80
2023/10/31 09:39:18;;;;;;;2.37;1.93;;;14.30;99.90;;;;;;10467756;28;20666;-81
2023/10/31 09:44:40;;;;;;;1.63;1.53;;;14.30;99.90;;;;;;10485842;28;20248;-80
2023/10/31 09:50:03;;;;;;;3.20;2.00;;;14.20;99.90;;;;;;10461973;28;20198;-80
2023/10/31 09:55:27;;;;;;;7.33;2.50;;;14.20;99.90;;;;;;10459879;28;20355;-80
2023/10/31 10:00:49;;;;;;;4.50;1.90;;;14.20;99.90;;;;;;10463783;28;20213;-80
2023/10/31 10:06:12;;;;;;;1.57;1.47;;;14.30;99.90;;;;;;10461710;28;20252;-79
2023/10/31 10:11:35;;;;;;;1.50;1.40;;;14.40;99.90;;;;;;10461983;28;20583;-80
2023/10/31 10:16:58;;;;;;;1.80;1.37;;;14.50;99.90;;;;;;10462445;28;20602;-80
2023/10/31 10:22:21;;;;;;;5.50;2.37;;;14.50;99.90;;;;;;10487173;28;20221;-80
2023/10/31 10:27:45;;;;;;;2.27;2.13;;;14.50;99.90;;;;;;10465144;28;20213;-79
2023/10/31 10:33:08;;;;;;;2.60;1.93;;;14.50;99.90;;;;;;10485634;28;20212;-80
2023/10/31 10:38:33;;;;;;;3.37;2.03;;;14.60;99.90;;;;;;10476022;28;20221;-80
2023/10/31 10:44:05;;;;;;;2.00;1.90;;;14.70;99.90;;;;;;10463566;28;20705;-80
2023/10/31 10:49:29;;;;;;;4.07;1.83;;;14.80;99.90;;;;;;10486337;28;20201;-81
2023/10/31 10:54:56;;;;;;;4.47;1.50;;;14.80;99.90;;;;;;10484913;28;20218;-80
2023/10/31 11:00:24;;;;;;;2.30;1.53;;;14.70;99.90;;;;;;10475655;28;20196;-80
2023/10/31 11:05:46;;;;;;;1.60;1.50;;;14.70;99.90;;;;;;10477197;28;20220;-80
2023/10/31 11:11:09;;;;;;;1.83;1.63;;;14.70;99.90;;;;;;10477109;28;20631;-80
2023/10/31 11:16:41;;;;;;;4.70;2.40;;;14.80;99.90;;;;;;10490896;28;20282;-80
2023/10/31 11:22:03;;;;;;;1.47;1.37;;;14.90;99.90;;;;;;10490325;28;20217;-81
2023/10/31 11:27:25;;;;;;;1.50;1.40;;;15.00;99.90;;;;;;10482548;28;20229;-80
2023/10/31 11:32:52;;;;;;;3.53;1.53;;;15.00;99.90;;;;;;10480714;28;20197;-81
2023/10/31 11:38:14;;;;;;;1.97;1.40;;;15.00;99.90;;;;;;10471604;28;20546;-80
2023/10/31 11:43:51;;;;;;;4.50;3.70;;;15.00;99.90;;;;;;10449347;28;20229;-81
2023/10/31 11:49:15;;;;;;;1.27;1.17;;;15.00;99.90;;;;;;10459021;28;20205;-80
2023/10/31 11:54:37;;;;;;;1.77;1.67;;;14.90;99.90;;;;;;10485050;28;20213;-81
2023/10/31 12:00:03;;;;;;;1.23;1.13;;;14.90;99.90;;;;;;10457812;28;20601;-78
2023/10/31 12:05:36;;;;;;;2.40;2.20;;;15.00;99.90;;;;;;10457257;28;20267;-79
2023/10/31 12:11:08;;;;;;;1.97;1.87;;;15.10;99.90;;;;;;10453782;28;20198;-78
2023/10/31 12:16:31;;;;;;;2.13;1.30;;;15.00;99.90;;;;;;10445840;28;20222;-78
2023/10/31 12:21:56;;;;;;;1.80;1.70;;;15.00;99.90;;;;;;10482113;28;20654;-78
2023/10/31 12:27:18;;;;;;;6.70;2.60;;;15.00;99.90;;;;;;10456379;28;20224;-78
2023/10/31 12:32:41;;;;;;;1.87;1.57;;;14.90;99.90;;;;;;10460664;28;20217;-79
2023/10/31 12:38:06;;;;;;;1.70;1.60;;;14.90;99.90;;;;;;10461743;28;20606;-78
2023/10/31 12:43:29;;;;;;;4.20;1.10;;;14.80;99.90;;;;;;10462904;28;20744;-80
2023/10/31 12:48:51;;;;;;;4.50;1.80;;;14.60;99.90;;;;;;10489731;28;20229;-80
2023/10/31 12:54:28;;;;;;;1.97;1.40;;;14.50;99.90;;;;;;10491519;28;20201;-80
2023/10/31 12:59:56;;;;;;;1.63;1.53;;;14.50;99.90;;;;;;10466498;28;20650;-80
2023/10/31 13:05:19;;;;;;;1.97;1.50;;;14.50;99.90;;;;;;10434959;28;20232;-80
2023/10/31 13:10:44;;;;;;;1.80;1.70;;;14.60;99.90;;;;;;10443601;28;20213;-79
2023/10/31 13:16:06;;;;;;;1.10;1.10;;;14.60;99.90;;;;;;10472694;28;20291;-80
2023/10/31 13:21:29;;;;;;;1.97;1.30;;;14.70;99.90;;;;;;10491789;28;20586;-80
2023/10/31 13:26:52;;;;;;;1.80;1.70;;;14.70;99.90;;;;;;10462140;28;20271;-80
2023/10/31 13:32:15;;;;;;;1.63;1.50;;;14.80;99.90;;;;;;10454886;28;20267;-79
2023/10/31 13:37:38;;;;;;;2.10;1.53;;;14.90;99.90;;;;;;10486789;28;20232;-81
2023/10/31 13:43:01;;;;;;;1.37;1.27;;;14.90;99.90;;;;;;10478740;28;20233;-80
2023/10/31 13:48:24;;;;;;;2.90;1.50;;;14.90;99.90;;;;;;10465837;28;20695;-80
2023/10/31 13:53:46;;;;;;;3.33;1.60;;;14.90;99.90;;;;;;10455598;28;20193;-80
2023/10/31 13:59:09;;;;;;;1.60;1.50;;;14.90;99.90;;;;;;10460303;28;20213;-81
2023/10/31 14:04:33;;;;;;;1.63;1.53;;;14.90;99.90;;;;;;10472070;28;20229;-80
2023/10/31 14:09:56;;;;;;;1.53;1.43;;;14.90;99.90;;;;;;10459555;28;20208;-78
2023/10/31 14:15:22;;;;;;;3.33;2.30;;;14.90;99.90;;;;;;10475567;28;20292;-78
2023/10/31 14:20:44;;;;;;;1.77;1.50;;;14.90;99.90;;;;;;10445880;28;20351;-79
2023/10/31 14:26:06;;;;;;;1.57;1.47;;;14.90;99.90;;;;;;10481482;28;20228;-81
2023/10/31 14:31:30;;;;;;;1.50;1.40;;;14.90;99.90;;;;;;10458381;28;20197;-79
2023/10/31 14:36:53;;;;;;;2.00;1.40;;;14.90;99.90;;;;;;10485332;28;20560;-80
2023/10/31 14:42:15;;;;;;;2.03;1.80;;;14.90;99.90;;;;;;10486328;28;20288;-81
2023/10/31 14:47:39;;;;;;;1.20;1.00;;;14.90;99.90;;;;;;10468535;28;20256;-80
2023/10/31 14:53:01;;;;;;;1.70;1.50;;;14.90;99.90;;;;;;10487883;28;20204;-78
2023/10/31 14:58:23;;;;;;;1.60;1.50;;;14.90;99.90;;;;;;10452522;28;20725;-81
2023/10/31 15:03:46;;;;;;;1.30;1.20;;;14.90;99.90;;;;;;10451791;28;20600;-77
2023/10/31 15:09:11;;;;;;;2.40;2.30;;;14.80;99.90;;;;;;10432294;28;20202;-77
2023/10/31 15:14:33;;;;;;;1.50;1.40;;;14.70;99.90;;;;;;10448830;28;20244;-79
2023/10/31 15:19:57;;;;;;;2.23;2.13;;;14.60;99.90;;;;;;10479941;28;20216;-78
2023/10/31 15:25:19;;;;;;;2.13;2.03;;;14.50;99.90;;;;;;10480561;28;20709;-78
2023/10/31 15:30:41;;;;;;;1.80;1.70;;;14.40;99.90;;;;;;10452013;28;20201;-78
2023/10/31 15:36:05;;;;;;;1.90;1.80;;;14.40;99.90;;;;;;10466250;28;20217;-79
2023/10/31 15:41:28;;;;;;;2.43;2.23;;;14.30;99.90;;;;;;10472206;28;20690;-77
2023/10/31 15:46:50;;;;;;;2.40;2.20;;;14.30;99.90;;;;;;10466596;28;20256;-77
2023/10/31 15:52:13;;;;;;;2.00;1.90;;;14.40;99.90;;;;;;10458751;28;20303;-77
2023/10/31 15:57:36;;;;;;;3.37;3.07;;;14.30;99.90;;;;;;10467283;28;20224;-78
2023/10/31 16:02:58;;;;;;;2.27;1.77;;;14.30;99.90;;;;;;10465956;28;20221;-80
2023/10/31 16:08:21;;;;;;;1.80;1.70;;;14.20;99.90;;;;;;10476595;28;20724;-80
2023/10/31 16:13:43;;;;;;;1.73;1.63;;;14.20;99.90;;;;;;10465603;28;20632;-80
2023/10/31 16:19:06;;;;;;;2.13;2.00;;;14.20;99.90;;;;;;10486347;28;20198;-80
2023/10/31 16:24:29;;;;;;;1.30;1.30;;;14.20;99.90;;;;;;10496672;28;20235;-80
2023/10/31 16:29:51;;;;;;;3.30;1.70;;;14.10;99.90;;;;;;10464345;28;20202;-80
2023/10/31 16:35:14;;;;;;;1.40;1.40;;;14.10;99.90;;;;;;10465966;28;20214;-81
2023/10/31 16:40:37;;;;;;;1.97;1.87;;;14.00;99.90;;;;;;10463441;28;20194;-80
2023/10/31 16:45:59;;;;;;;2.20;2.10;;;13.90;99.90;;;;;;10500046;28;20749;-80
2023/10/31 16:51:22;;;;;;;11.27;8.77;;;13.90;99.90;;;;;;10471830;28;20202;-81
2023/10/31 16:56:46;;;;;;;5.37;4.30;;;13.90;99.90;;;;;;10464363;28;20232;-80
2023/10/31 17:02:08;;;;;;;5.10;4.27;;;13.90;99.90;;;;;;10458018;28;20228;-81
2023/10/31 17:07:30;;;;;;;3.27;3.07;;;13.90;99.90;;;;;;10474548;28;20222;-81
2023/10/31 17:12:54;;;;;;;3.30;3.00;;;13.80;99.90;;;;;;10471396;28;20221;-79
2023/10/31 17:18:17;;;;;;;2.73;2.53;;;13.70;99.90;;;;;;10460474;28;20221;-79
2023/10/31 17:23:39;;;;;;;2.23;2.13;;;13.60;99.90;;;;;;10459415;28;20232;-80
2023/10/31 17:29:03;;;;;;;2.77;2.67;;;13.50;99.90;;;;;;10483797;28;20197;-80
2023/10/31 17:34:25;;;;;;;2.00;1.90;;;13.60;99.90;;;;;;10499336;28;20217;-80
2023/10/31 17:39:47;;;;;;;2.43;2.33;;;13.60;99.90;;;;;;10455486;28;20202;-80
2023/10/31 17:45:12;;;;;;;2.30;2.10;;;13.50;99.90;;;;;;10491950;28;20217;-81
2023/10/31 17:50:34;;;;;;;2.63;2.53;;;13.50;99.90;;;;;;10487281;28;20290;-81
2023/10/31 17:55:57;;;;;;;2.73;2.63;;;13.40;99.90;;;;;;10461648;28;20213;-80
2023/10/31 18:01:20;;;;;;;2.67;2.57;;;13.40;99.90;;;;;;10498286;28;20197;-81
2023/10/31 18:06:42;;;;;;;2.90;2.80;;;13.30;99.90;;;;;;10458450;28;20297;-80
2023/10/31 18:12:05;;;;;;;2.73;2.63;;;13.30;99.90;;;;;;10495604;28;20194;-81
2023/10/31 18:17:29;;;;;;;3.00;2.80;;;13.20;99.90;;;;;;10465206;28;20728;-80
2023/10/31 18:22:51;;;;;;;2.33;2.23;;;13.20;99.90;;;;;;10450643;28;20228;-80
2023/10/31 18:28:13;;;;;;;3.00;2.90;;;13.30;99.90;;;;;;10475556;28;20685;-80
2023/10/31 18:33:41;;;;;;;3.10;2.80;;;13.30;99.90;;;;;;10467809;28;20200;-80
2023/10/31 18:39:03;;;;;;;2.90;2.70;;;13.20;99.90;;;;;;10489757;28;20207;-78
2023/10/31 18:44:25;;;;;;;4.20;3.90;;;13.20;99.90;;;;;;10473156;28;20661;-81
2023/10/31 18:49:49;;;;;;;3.00;2.80;;;13.20;99.90;;;;;;10493957;28;20666;-80
2023/10/31 18:55:11;;;;;;;3.30;3.10;;;13.30;99.90;;;;;;10461523;28;20249;-81
2023/10/31 19:00:33;;;;;;;4.70;4.20;;;13.30;99.90;;;;;;10467371;28;20196;-81
2023/10/31 19:05:57;;;;;;;2.97;2.83;;;13.40;99.90;;;;;;10483685;28;20232;-81
2023/10/31 19:11:19;;;;;;;3.00;2.77;;;13.30;99.90;;;;;;10466926;28;20205;-81
2023/10/31 19:16:41;;;;;;;3.33;3.03;;;13.40;99.90;;;;;;10489588;28;20239;-81
2023/10/31 19:22:05;;;;;;;4.00;2.83;;;13.40;99.90;;;;;;10494370;28;20205;-81
2023/10/31 19:27:27;;;;;;;3.50;3.30;;;13.40;99.90;;;;;;10460646;28;20214;-80
2023/10/31 19:32:50;;;;;;;3.57;3.23;;;13.40;99.90;;;;;;10491736;28;20658;-81
2023/10/31 19:38:14;;;;;;;3.83;3.53;;;13.40;99.90;;;;;;10454402;28;20225;-81
2023/10/31 19:43:36;;;;;;;1.60;1.50;;;13.50;99.90;;;;;;10493432;28;20210;-79
2023/10/31 19:48:58;;;;;;;2.33;2.23;;;13.50;99.90;;;;;;10460170;28;20225;-81
2023/10/31 19:54:22;;;;;;;2.73;2.63;;;13.50;99.90;;;;;;10463877;28;20223;-81
2023/10/31 19:59:45;;;;;;;2.87;2.70;;;13.50;99.90;;;;;;10478837;28;20213;-81
2023/10/31 20:05:07;;;;;;;2.67;2.57;;;13.50;99.90;;;;;;10499976;28;20288;-81
2023/10/31 20:10:31;;;;;;;4.73;3.00;;;13.40;99.90;;;;;;10483014;28;20547;-81
2023/10/31 20:15:54;;;;;;;3.30;3.17;;;13.40;99.90;;;;;;10474992;28;20283;-81
2023/10/31 20:21:16;;;;;;;3.30;3.20;;;13.40;99.90;;;;;;10491324;28;20211;-80
2023/10/31 20:26:41;;;;;;;3.10;2.90;;;13.40;99.90;;;;;;10476266;28;20228;-81
2023/10/31 20:32:03;;;;;;;2.40;2.30;;;13.40;99.90;;;;;;10481941;28;20582;-81
2023/10/31 20:37:25;;;;;;;2.50;2.40;;;13.40;99.90;;;;;;10504072;28;20270;-81
2023/10/31 20:42:49;;;;;;;2.97;2.77;;;13.30;99.90;;;;;;10466623;28;20722;-81
2023/10/31 20:48:11;;;;;;;3.20;2.30;;;13.40;99.90;;;;;;10485027;28;20228;-80
2023/10/31 20:53:33;;;;;;;2.90;2.80;;;13.20;99.90;;;;;;10488296;28;20224;-81
2023/10/31 20:58:57;;;;;;;3.00;2.80;;;13.30;99.90;;;;;;10470314;28;20226;-80
2023/10/31 21:04:20;;;;;;;2.77;2.63;;;13.20;99.90;;;;;;10457008;28;20588;-80
2023/10/31 21:09:43;;;;;;;3.03;2.83;;;13.10;99.90;;;;;;10472190;28;20197;-81
2023/10/31 21:15:08;;;;;;;2.80;2.60;;;13.10;99.90;;;;;;10461034;28;20228;-79
2023/10/31 21:20:30;;;;;;;3.97;3.67;;;13.00;99.90;;;;;;10483566;28;20215;-80
2023/10/31 21:25:54;;;;;;;4.00;3.70;;;13.00;99.90;;;;;;10493698;28;20233;-79
2023/10/31 21:31:17;;;;;;;13.33;8.00;;;13.00;99.90;;;;;;10453080;28;20861;-80
2023/10/31 21:36:40;;;;;;;3.83;3.53;;;12.90;99.90;;;;;;10499292;28;20697;-80
2023/10/31 21:42:02;;;;;;;6.17;5.00;;;12.90;99.90;;;;;;10482027;28;20197;-81
2023/10/31 21:47:25;;;;;;;3.53;3.30;;;12.90;99.90;;;;;;10481427;28;20230;-81
2023/10/31 21:52:47;;;;;;;4.10;3.83;;;12.90;99.90;;;;;;10500652;28;20208;-80
2023/10/31 21:58:10;;;;;;;3.27;3.07;;;12.80;99.90;;;;;;10475943;28;20217;-79
2023/10/31 22:03:33;;;;;;;4.07;3.87;;;12.80;99.90;;;;;;10482111;28;20235;-80
2023/10/31 22:08:55;;;;;;;2.70;2.50;;;12.70;99.90;;;;;;10480900;28;20787;-81
2023/10/31 22:14:17;;;;;;;2.97;2.87;;;12.70;99.90;;;;;;10445102;28;20281;-80
2023/10/31 22:19:41;;;;;;;2.90;2.70;;;12.70;99.90;;;;;;10471772;28;20198;-80
2023/10/31 22:25:04;;;;;;;3.37;3.07;;;12.60;99.90;;;;;;10467144;28;20623;-80
2023/10/31 22:30:26;;;;;;;2.60;2.50;;;12.60;99.90;;;;;;10469157;28;20237;-80
2023/10/31 22:35:50;;;;;;;3.43;2.93;;;12.60;99.90;;;;;;10477546;28;20226;-79
2023/10/31 22:41:12;;;;;;;3.23;3.00;;;12.60;99.90;;;;;;10466431;28;20217;-80
2023/10/31 22:46:35;;;;;;;2.83;2.73;;;12.60;99.90;;;;;;10461360;28;20213;-79
2023/10/31 22:51:58;;;;;;;2.70;2.50;;;12.60;99.90;;;;;;10465811;28;20290;-79
2023/10/31 22:57:21;;;;;;;4.30;3.30;;;12.60;99.90;;;;;;10463474;28;20877;-78
2023/10/31 23:02:43;;;;;;;2.90;2.70;;;12.60;99.90;;;;;;10457699;28;20219;-80
2023/10/31 23:08:07;;;;;;;3.70;3.40;;;12.50;99.90;;;;;;10463741;28;20224;-78
2023/10/31 23:13:29;;;;;;;3.00;2.80;;;12.50;99.90;;;;;;10461200;28;20282;-79
2023/10/31 23:18:51;;;;;;;3.07;2.90;;;12.50;99.90;;;;;;10465595;28;20227;-78
2023/10/31 23:24:15;;;;;;;2.90;2.80;;;12.50;99.90;;;;;;10473326;28;20230;-78
2023/10/31 23:29:37;;;;;;;2.53;2.33;;;12.60;99.90;;;;;;10473595;28;20201;-80
2023/10/31 23:34:59;;;;;;;2.90;2.70;;;12.60;99.90;;;;;;10465406;28;20262;-78
2023/10/31 23:40:23;;;;;;;2.70;2.60;;;12.70;99.90;;;;;;10457919;28;20209;-80
2023/10/31 23:45:45;;;;;;;2.93;2.70;;;12.70;99.90;;;;;;10461434;28;20693;-79
2023/10/31 23:51:07;;;;;;;2.70;2.60;;;12.70;99.90;;;;;;10468598;28;20210;-81
2023/10/31 23:56:31;;;;;;;3.43;3.13;;;12.80;99.90;;;;;;10483610;28;20228;-80
